West Palm Beach, Florida
Current Conditions -  °F | °C
As of 11:53 PM on Thursday 30 Oct 2014 (Local Time) from KPBI Reporting Station
Broken Clouds Broken Clouds  
Wind Chill: 75°   Ceiling: 6500
Heat Index: 75°   Visibility: 10mi
Dew Point: 68°   Wind: 3mph
Humidity: 79%   Direction: 220°SW
Pressure: 29.88"   Gusts: NA
Location:  26.71°N, 80.05°W
Report Text: KPBI 310353Z 22003KT 10SM BKN065 24/20 A2988 RMK AO2 SLP119 T02390200
Loading
Personal Weather Stations






























Interactive Weather Map
Tropical Storm Tracking
New forecast layout! Learn more

10-Day Weather Forecast

Advertisements
Track Severe Weather on mobile